Time;durP1;ratioP1;P1;durP2;ratioP2;P2;SDS_P1;SDS_P2;PMS_P1;PMS_P2;Temp;Humidity;BMP_temperature;BMP_pressure;BME280_temperature;BME280_humidity;BME280_pressure;Samples;Min_cycle;Max_cycle;Signal;HPM_P1;HPM_P2
2022/04/20 00:00:26;;;;;;;0.60;0.50;;;18.90;61.70;;;;;;5128197;27;45312;-74
2022/04/20 00:02:52;;;;;;;1.17;0.50;;;18.80;61.50;;;;;;5129549;27;48192;-74
2022/04/20 00:05:21;;;;;;;0.80;0.50;;;18.90;61.70;;;;;;5113023;27;45257;-74
2022/04/20 00:07:47;;;;;;;1.63;0.70;;;18.90;61.10;;;;;;5134194;27;45301;-73
2022/04/20 00:10:14;;;;;;;1.55;0.60;;;18.90;61.70;;;;;;5138133;27;45180;-74
2022/04/20 00:12:41;;;;;;;1.27;0.70;;;18.90;61.00;;;;;;5128908;27;46138;-74
2022/04/20 00:15:09;;;;;;;0.85;0.65;;;18.80;61.00;;;;;;5129934;27;45211;-74
2022/04/20 00:17:35;;;;;;;0.85;0.50;;;18.90;61.40;;;;;;5111492;27;45101;-74
2022/04/20 00:20:02;;;;;;;0.85;0.60;;;18.90;60.60;;;;;;5123767;27;45373;-74
2022/04/20 00:22:31;;;;;;;0.75;0.60;;;18.90;60.30;;;;;;5127673;27;46587;-75
2022/04/20 00:24:57;;;;;;;0.75;0.57;;;18.90;61.00;;;;;;5129324;27;45119;-74
2022/04/20 00:27:24;;;;;;;0.60;0.60;;;18.90;60.20;;;;;;5118761;27;45249;-74
2022/04/20 00:29:51;;;;;;;0.52;0.52;;;18.80;60.60;;;;;;5108781;27;45302;-75
2022/04/20 00:32:17;;;;;;;1.20;0.80;;;18.80;60.30;;;;;;5119233;27;45481;-74
2022/04/20 00:34:44;;;;;;;1.13;0.75;;;18.80;59.90;;;;;;5116660;27;45231;-74
2022/04/20 00:37:11;;;;;;;0.77;0.68;;;18.80;61.40;;;;;;5127046;27;45337;-74
2022/04/20 00:39:39;;;;;;;0.60;0.60;;;18.80;60.50;;;;;;5114203;27;45345;-74
2022/04/20 00:42:07;;;;;;;1.65;0.50;;;18.80;60.00;;;;;;5114721;27;46008;-74
2022/04/20 00:44:33;;;;;;;0.82;0.68;;;18.80;60.00;;;;;;5123553;27;45260;-74
2022/04/20 00:47:02;;;;;;;1.75;0.55;;;18.90;60.00;;;;;;5128455;27;45224;-73
2022/04/20 00:49:31;;;;;;;0.60;0.60;;;18.90;60.00;;;;;;5128060;27;45314;-74
2022/04/20 00:51:59;;;;;;;0.63;0.55;;;18.90;59.70;;;;;;5129291;27;45288;-73
2022/04/20 00:54:26;;;;;;;1.17;0.80;;;18.80;60.00;;;;;;5129671;27;45285;-74
2022/04/20 00:56:54;;;;;;;0.68;0.52;;;18.90;60.00;;;;;;5128687;27;45113;-74
2022/04/20 00:59:24;;;;;;;0.73;0.52;;;18.90;59.40;;;;;;5129113;27;45207;-73
2022/04/20 01:01:52;;;;;;;0.68;0.50;;;18.90;60.20;;;;;;5127650;27;48358;-74
2022/04/20 01:04:19;;;;;;;0.77;0.50;;;18.90;59.40;;;;;;5128030;27;45267;-74
2022/04/20 01:06:46;;;;;;;0.55;0.50;;;18.90;59.40;;;;;;5129075;27;45145;-74
2022/04/20 01:09:13;;;;;;;0.95;0.50;;;18.90;59.40;;;;;;5129136;27;45195;-74
2022/04/20 02:08:58;;;;;;;1.58;0.70;;;18.80;56.70;;;;;;5125450;27;45458;-74
2022/04/20 02:11:25;;;;;;;1.10;0.65;;;18.80;57.50;;;;;;5126265;27;45186;-74
2022/04/20 02:13:52;;;;;;;1.30;0.60;;;18.80;57.40;;;;;;5129371;27;45247;-74
2022/04/20 02:16:18;;;;;;;1.02;0.70;;;18.80;57.40;;;;;;5125345;27;46677;-74
2022/04/20 02:18:45;;;;;;;1.23;0.70;;;18.80;57.70;;;;;;5127733;27;45239;-74
2022/04/20 02:21:12;;;;;;;0.55;0.55;;;18.80;57.70;;;;;;5128538;27;45460;-74
2022/04/20 02:23:39;;;;;;;2.22;0.50;;;18.90;57.60;;;;;;5126511;27;45445;-74
2022/04/20 02:26:07;;;;;;;1.65;0.68;;;18.90;57.10;;;;;;5127902;27;46293;-74
2022/04/20 02:28:34;;;;;;;1.23;0.70;;;18.90;57.70;;;;;;5127678;27;45245;-75
2022/04/20 02:31:01;;;;;;;1.45;0.93;;;18.90;57.00;;;;;;5132349;27;45671;-74
2022/04/20 02:33:27;;;;;;;1.67;0.70;;;18.90;56.90;;;;;;5134578;27;45178;-75
2022/04/20 02:35:54;;;;;;;1.10;0.70;;;18.80;56.60;;;;;;5128163;27;45190;-74
2022/04/20 02:38:21;;;;;;;2.40;0.60;;;18.80;57.20;;;;;;5126802;27;45172;-73
2022/04/20 02:40:51;;;;;;;1.40;0.60;;;18.80;56.30;;;;;;5124169;27;45420;-74
2022/04/20 02:43:19;;;;;;;0.70;0.60;;;18.80;56.30;;;;;;5128175;27;45423;-74
2022/04/20 02:45:46;;;;;;;1.25;0.77;;;18.80;56.80;;;;;;5128413;27;46620;-74
2022/04/20 02:48:13;;;;;;;1.85;0.80;;;18.80;55.90;;;;;;5125794;27;45759;-74
2022/04/20 02:50:40;;;;;;;1.20;0.65;;;18.80;56.20;;;;;;5110345;27;45306;-74
2022/04/20 02:53:07;;;;;;;0.95;0.50;;;18.80;55.80;;;;;;5117972;27;45287;-74
2022/04/20 02:55:35;;;;;;;1.35;0.70;;;18.80;56.00;;;;;;5130157;27;47403;-74
2022/04/20 02:58:02;;;;;;;0.77;0.65;;;18.80;55.80;;;;;;5128783;27;45171;-74
2022/04/20 03:00:30;;;;;;;1.05;0.60;;;18.80;56.30;;;;;;5127613;27;45274;-73
2022/04/20 03:02:57;;;;;;;1.10;0.80;;;18.80;55.80;;;;;;5131604;27;45258;-74
2022/04/20 03:05:24;;;;;;;1.00;0.55;;;18.80;55.80;;;;;;5127270;27;45338;-73
2022/04/20 03:07:51;;;;;;;0.60;0.50;;;18.80;55.80;;;;;;5131559;27;45155;-74
2022/04/20 03:10:17;;;;;;;0.95;0.70;;;18.80;55.60;;;;;;5130547;27;45266;-74
2022/04/20 03:12:44;;;;;;;0.75;0.63;;;18.90;56.20;;;;;;5131259;27;45523;-74
2022/04/20 03:15:11;;;;;;;0.80;0.50;;;18.90;56.20;;;;;;5130135;27;47434;-73
2022/04/20 03:17:42;;;;;;;1.23;0.60;;;18.90;56.20;;;;;;5129042;27;45214;-74
2022/04/20 03:20:10;;;;;;;1.42;0.80;;;18.90;56.10;;;;;;5130539;27;45254;-74
2022/04/20 03:22:37;;;;;;;0.55;0.50;;;18.80;55.80;;;;;;5131261;27;45730;-73
2022/04/20 03:25:04;;;;;;;1.52;0.70;;;18.80;55.70;;;;;;5129164;27;46529;-74
2022/04/20 03:27:31;;;;;;;1.27;0.60;;;18.80;55.50;;;;;;5129488;27;45164;-73
2022/04/20 03:29:58;;;;;;;0.73;0.52;;;18.80;55.30;;;;;;5128091;27;45607;-73
2022/04/20 03:32:25;;;;;;;0.55;0.50;;;18.80;55.10;;;;;;5111092;27;45464;-74
2022/04/20 03:34:54;;;;;;;1.67;0.70;;;18.80;55.00;;;;;;5130901;27;47495;-73
2022/04/20 03:37:21;;;;;;;0.68;0.57;;;18.80;55.30;;;;;;5135678;27;45133;-73
2022/04/20 03:39:48;;;;;;;0.68;0.60;;;18.80;55.40;;;;;;5135055;27;45203;-74
2022/04/20 03:42:14;;;;;;;2.28;0.80;;;18.80;54.90;;;;;;5124301;27;45197;-73
2022/04/20 03:44:41;;;;;;;1.13;0.52;;;18.80;54.60;;;;;;5130259;27;47444;-73
2022/04/20 03:47:08;;;;;;;0.88;0.60;;;18.80;55.00;;;;;;5131084;27;45166;-73
2022/04/20 03:49:35;;;;;;;1.02;0.63;;;18.80;54.90;;;;;;5128882;27;45226;-74
2022/04/20 03:52:04;;;;;;;1.08;0.60;;;18.80;55.10;;;;;;5129655;27;45447;-74
2022/04/20 03:54:30;;;;;;;1.38;0.70;;;18.80;55.20;;;;;;5127159;27;45985;-74
2022/04/20 03:57:07;;;;;;;1.38;0.70;;;18.80;54.80;;;;;;5130934;27;45225;-74
2022/04/20 03:59:36;;;;;;;0.70;0.55;;;18.90;55.30;;;;;;5129204;27;45171;-74
2022/04/20 04:02:03;;;;;;;1.40;0.95;;;18.80;54.10;;;;;;5129764;27;45655;-73
2022/04/20 04:04:30;;;;;;;2.13;0.52;;;18.90;54.40;;;;;;5108998;27;45405;-74
2022/04/20 04:06:57;;;;;;;0.90;0.63;;;18.80;54.80;;;;;;5122493;27;45306;-74
2022/04/20 04:09:26;;;;;;;1.58;0.82;;;18.80;54.40;;;;;;5129142;27;45588;-74
2022/04/20 04:11:52;;;;;;;3.13;0.70;;;18.80;55.10;;;;;;5115630;27;47288;-74
2022/04/20 04:14:19;;;;;;;1.17;0.60;;;18.70;55.10;;;;;;5123218;27;46348;-74
2022/04/20 04:16:46;;;;;;;1.00;0.52;;;18.70;54.70;;;;;;5108958;27;45164;-74
2022/04/20 04:19:13;;;;;;;0.93;0.70;;;18.70;54.20;;;;;;5117825;27;45321;-74
2022/04/20 04:21:40;;;;;;;1.02;0.68;;;18.70;53.10;;;;;;5130505;27;45158;-74
2022/04/20 04:24:07;;;;;;;0.73;0.70;;;18.70;52.90;;;;;;5129867;27;45335;-74
2022/04/20 04:26:36;;;;;;;3.05;0.70;;;18.70;52.90;;;;;;5111789;27;45167;-74
2022/04/20 04:29:02;;;;;;;1.67;0.70;;;18.70;52.90;;;;;;5129299;27;45235;-74
2022/04/20 04:31:29;;;;;;;1.58;0.93;;;18.70;52.60;;;;;;5126794;27;45362;-74
2022/04/20 04:33:56;;;;;;;1.60;1.00;;;18.70;51.80;;;;;;5129981;27;45464;-74
2022/04/20 04:36:23;;;;;;;2.00;1.00;;;18.70;51.80;;;;;;5129989;27;45166;-74
2022/04/20 04:38:50;;;;;;;2.03;0.70;;;18.70;52.30;;;;;;5128072;27;45519;-74
2022/04/20 04:41:17;;;;;;;1.58;0.95;;;18.70;51.80;;;;;;5124554;27;45465;-74
2022/04/20 04:43:45;;;;;;;1.65;1.00;;;18.70;51.40;;;;;;5124861;27;46273;-74
2022/04/20 04:48:56;;;;;;;1.67;0.82;;;18.70;52.90;;;;;;5127623;27;45170;-74
2022/04/20 04:51:23;;;;;;;1.60;0.80;;;18.70;52.90;;;;;;5117431;27;45275;-74
2022/04/20 04:53:50;;;;;;;1.42;0.90;;;18.70;53.20;;;;;;5121544;27;46208;-74
2022/04/20 04:56:16;;;;;;;1.63;0.98;;;18.80;54.00;;;;;;5123738;27;45193;-74
2022/04/20 04:58:44;;;;;;;1.33;0.90;;;18.80;54.50;;;;;;5118878;27;45340;-74
2022/04/20 05:01:11;;;;;;;1.25;0.80;;;18.70;54.60;;;;;;5120343;27;45230;-74
2022/04/20 05:03:38;;;;;;;1.73;0.90;;;18.70;54.40;;;;;;5122273;27;47983;-74
2022/04/20 05:06:05;;;;;;;2.40;0.98;;;18.80;54.90;;;;;;5118811;27;45260;-74
2022/04/20 05:08:31;;;;;;;1.63;0.70;;;18.80;55.10;;;;;;5121004;27;45285;-74
2022/04/20 05:10:58;;;;;;;3.15;0.80;;;18.80;56.50;;;;;;5128185;27;45377;-74
2022/04/20 05:13:25;;;;;;;0.85;0.75;;;18.80;55.50;;;;;;5126139;27;48040;-74
2022/04/20 05:15:53;;;;;;;1.67;0.80;;;18.80;55.70;;;;;;5125288;27;45423;-74
2022/04/20 05:18:20;;;;;;;3.35;0.77;;;18.80;55.40;;;;;;5107867;27;45586;-74
2022/04/20 05:20:47;;;;;;;0.85;0.80;;;18.90;56.20;;;;;;5122677;27;45397;-74
2022/04/20 05:23:13;;;;;;;2.75;0.70;;;18.90;55.40;;;;;;5124522;27;45327;-74
2022/04/20 05:25:40;;;;;;;1.48;0.70;;;18.90;55.60;;;;;;5125485;27;45591;-74
2022/04/20 05:28:09;;;;;;;1.77;0.93;;;18.90;55.70;;;;;;5128478;27;45171;-75
2022/04/20 05:30:36;;;;;;;1.20;0.63;;;18.90;55.70;;;;;;5116951;27;45741;-74
2022/04/20 05:33:05;;;;;;;4.30;1.10;;;18.80;56.00;;;;;;5126023;27;45372;-74
2022/04/20 05:35:32;;;;;;;19.73;1.80;;;18.90;58.10;;;;;;5121906;27;45148;-74
2022/04/20 05:43:27;;;;;;;1.92;0.73;;;18.90;56.30;;;;;;5117628;27;45408;-75
2022/04/20 05:45:53;;;;;;;3.20;0.88;;;18.90;56.30;;;;;;5122215;27;45232;-74
2022/04/20 05:48:22;;;;;;;3.22;0.90;;;18.90;56.30;;;;;;5115884;27;45261;-74
2022/04/20 05:50:48;;;;;;;1.73;0.88;;;18.80;56.40;;;;;;5126044;27;45160;-74
2022/04/20 05:53:15;;;;;;;2.20;0.75;;;18.80;56.20;;;;;;5126886;27;46314;-74
2022/04/20 05:55:42;;;;;;;5.22;1.13;;;18.80;56.20;;;;;;5122849;27;45290;-74
2022/04/20 05:58:09;;;;;;;4.35;0.93;;;18.80;56.20;;;;;;5122291;27;45213;-74
2022/04/20 06:00:36;;;;;;;1.38;0.82;;;18.90;56.30;;;;;;5127041;27;45257;-74
2022/04/20 06:03:03;;;;;;;1.42;0.55;;;18.90;56.20;;;;;;5137537;27;47398;-74
2022/04/20 06:05:31;;;;;;;1.05;0.80;;;18.90;56.20;;;;;;5128568;27;45498;-74
2022/04/20 06:07:58;;;;;;;4.55;0.90;;;18.80;56.10;;;;;;5123715;27;45238;-74
2022/04/20 06:10:25;;;;;;;1.50;0.80;;;18.90;55.90;;;;;;5120419;27;45366;-75
2022/04/20 06:12:51;;;;;;;1.80;0.70;;;18.90;55.90;;;;;;5127806;27;45550;-75
2022/04/20 06:15:18;;;;;;;1.35;0.73;;;18.90;55.80;;;;;;5125668;27;46678;-75
2022/04/20 06:17:45;;;;;;;2.65;0.52;;;18.90;55.90;;;;;;5128714;27;45354;-73
2022/04/20 06:20:12;;;;;;;1.40;0.70;;;18.90;56.10;;;;;;5125537;27;45226;-75
2022/04/20 06:22:40;;;;;;;1.73;0.70;;;18.90;56.20;;;;;;5124269;27;46819;-74
2022/04/20 06:25:08;;;;;;;2.72;0.77;;;18.90;56.00;;;;;;5131586;27;45331;-74
2022/04/20 06:27:36;;;;;;;1.90;0.77;;;18.80;55.90;;;;;;5126091;27;45195;-74
2022/04/20 06:30:04;;;;;;;1.50;0.70;;;18.90;56.00;;;;;;5123363;27;45169;-74
2022/04/20 06:32:31;;;;;;;2.78;0.90;;;18.90;55.90;;;;;;5123582;27;47264;-76
2022/04/20 06:34:58;;;;;;;1.63;0.82;;;18.80;55.80;;;;;;5132039;27;45308;-74
2022/04/20 06:37:25;;;;;;;1.50;0.68;;;18.90;55.60;;;;;;5129895;27;45325;-74
2022/04/20 06:39:56;;;;;;;1.77;0.68;;;18.90;55.90;;;;;;5128366;27;45464;-74
2022/04/20 06:42:23;;;;;;;1.13;0.68;;;18.80;55.90;;;;;;5123155;27;45290;-74
2022/04/20 06:44:49;;;;;;;1.92;0.80;;;18.80;55.80;;;;;;5122239;27;45331;-74
2022/04/20 06:47:16;;;;;;;1.38;0.77;;;18.90;55.60;;;;;;5125664;27;45427;-74
2022/04/20 06:49:43;;;;;;;1.50;0.88;;;18.90;55.50;;;;;;5118831;27;46432;-74
2022/04/20 07:00:25;;;;;;;1.25;0.60;;;18.90;55.50;;;;;;5120123;27;45206;-74
2022/04/20 07:02:59;;;;;;;0.70;0.65;;;18.90;55.60;;;;;;5130263;27;45455;-74
2022/04/20 07:05:26;;;;;;;1.10;0.70;;;18.90;55.80;;;;;;5123306;27;45324;-74
2022/04/20 07:07:53;;;;;;;1.35;0.65;;;18.90;55.80;;;;;;5134419;27;46148;-74
2022/04/20 07:10:21;;;;;;;2.78;0.70;;;18.90;55.70;;;;;;5127875;27;45253;-74
2022/04/20 07:12:48;;;;;;;1.60;0.77;;;18.90;55.80;;;;;;5130450;27;47033;-74
2022/04/20 07:15:14;;;;;;;0.73;0.55;;;18.80;55.60;;;;;;5121934;27;45387;-74
2022/04/20 07:17:41;;;;;;;2.03;0.60;;;18.80;55.70;;;;;;5123907;27;45705;-74
2022/04/20 07:20:10;;;;;;;0.40;0.40;;;18.80;55.80;;;;;;5129887;27;45535;-74
2022/04/20 07:22:37;;;;;;;2.38;0.60;;;18.80;55.80;;;;;;5130961;27;45377;-76
2022/04/20 07:25:05;;;;;;;1.67;0.82;;;18.80;55.70;;;;;;5125892;27;45566;-73
2022/04/20 07:27:33;;;;;;;1.40;0.80;;;18.80;55.80;;;;;;5129563;27;45283;-75
2022/04/20 07:30:00;;;;;;;1.40;0.63;;;18.90;55.50;;;;;;5123067;27;45843;-75
2022/04/20 07:32:27;;;;;;;0.63;0.60;;;18.90;55.30;;;;;;5122245;27;48234;-75
2022/04/20 07:34:53;;;;;;;0.73;0.50;;;18.90;55.00;;;;;;5129077;27;45334;-75
2022/04/20 07:37:20;;;;;;;1.08;0.60;;;18.90;55.10;;;;;;5111153;27;45154;-75
2022/04/20 07:39:47;;;;;;;1.48;0.77;;;18.90;55.10;;;;;;5127339;27;45639;-75
2022/04/20 07:42:14;;;;;;;1.10;0.60;;;18.90;54.90;;;;;;5127444;27;46435;-75
2022/04/20 07:44:43;;;;;;;0.63;0.50;;;18.90;54.70;;;;;;5127651;27;45226;-75
2022/04/20 07:47:10;;;;;;;1.20;0.70;;;18.90;54.80;;;;;;5130243;27;45295;-75
2022/04/20 07:52:21;;;;;;;1.15;0.70;;;18.90;54.60;;;;;;5130346;27;45213;-75
2022/04/20 07:54:47;;;;;;;0.50;0.40;;;18.90;54.40;;;;;;5128968;27;45222;-75
2022/04/20 07:57:15;;;;;;;0.88;0.77;;;18.90;54.60;;;;;;5129098;27;45262;-75
2022/04/20 07:59:44;;;;;;;0.77;0.57;;;18.90;55.50;;;;;;5127044;27;45449;-75
2022/04/20 08:02:11;;;;;;;0.73;0.60;;;18.90;53.80;;;;;;5121743;27;45997;-75
2022/04/20 08:04:38;;;;;;;0.77;0.60;;;18.90;53.10;;;;;;5125152;27;45526;-75
2022/04/20 08:07:05;;;;;;;1.00;0.45;;;19.00;53.30;;;;;;5126081;27;45268;-75
2022/04/20 08:09:32;;;;;;;1.05;0.68;;;18.90;53.20;;;;;;5127887;27;45173;-75
2022/04/20 08:11:59;;;;;;;0.80;0.50;;;18.90;53.10;;;;;;5128991;27;45233;-75
2022/04/20 08:14:25;;;;;;;1.08;0.70;;;18.90;54.30;;;;;;5133701;27;45221;-75
2022/04/20 08:16:54;;;;;;;0.70;0.70;;;19.00;53.20;;;;;;5133631;27;45256;-75
2022/04/20 08:19:21;;;;;;;1.50;0.50;;;18.90;54.40;;;;;;5120573;27;45254;-75
2022/04/20 08:21:47;;;;;;;0.88;0.50;;;19.00;53.20;;;;;;5128268;27;45216;-75
2022/04/20 08:24:14;;;;;;;1.98;0.45;;;19.00;53.30;;;;;;5127543;27;45310;-75
2022/04/20 08:26:41;;;;;;;0.70;0.50;;;19.00;53.20;;;;;;5128486;27;45247;-75
2022/04/20 08:29:10;;;;;;;1.33;0.63;;;19.00;52.90;;;;;;5126346;27;45217;-76
2022/04/20 08:31:37;;;;;;;1.13;0.70;;;19.00;52.50;;;;;;5110375;27;47062;-75
2022/04/20 08:34:06;;;;;;;1.02;0.68;;;19.00;52.30;;;;;;5127050;27;45221;-75
2022/04/20 08:36:33;;;;;;;1.02;0.68;;;19.00;52.40;;;;;;5129601;27;45289;-75
2022/04/20 08:39:00;;;;;;;0.52;0.52;;;19.00;52.00;;;;;;5126317;27;45265;-75
2022/04/20 08:41:27;;;;;;;1.00;0.60;;;19.00;51.70;;;;;;5125236;27;46217;-75
2022/04/20 08:43:55;;;;;;;1.13;0.70;;;19.10;51.90;;;;;;5130050;27;45158;-75
2022/04/20 08:46:24;;;;;;;1.92;0.68;;;19.00;52.00;;;;;;5127454;27;45180;-75
2022/04/20 08:48:51;;;;;;;0.90;0.60;;;19.00;52.20;;;;;;5124189;27;45215;-75
2022/04/20 08:51:20;;;;;;;1.00;0.50;;;19.00;52.20;;;;;;5128552;27;46510;-75
2022/04/20 08:53:47;;;;;;;0.90;0.80;;;19.00;52.50;;;;;;5126239;27;45193;-75
2022/04/20 08:58:59;;;;;;;0.47;0.47;;;19.00;53.20;;;;;;5123071;27;45329;-75
2022/04/20 09:01:27;;;;;;;1.48;0.65;;;19.00;53.20;;;;;;5128220;27;48031;-75
2022/04/20 09:03:56;;;;;;;1.20;0.70;;;19.00;53.20;;;;;;5126036;27;45245;-75
2022/04/20 09:06:24;;;;;;;1.00;0.70;;;19.00;53.20;;;;;;5123126;27;45270;-76
2022/04/20 09:08:53;;;;;;;0.98;0.52;;;19.00;52.90;;;;;;5115714;27;45404;-75
2022/04/20 09:11:21;;;;;;;0.40;0.38;;;18.90;53.10;;;;;;5124374;27;47392;-75
2022/04/20 09:13:48;;;;;;;0.80;0.60;;;19.00;53.20;;;;;;5128601;27;45703;-75
2022/04/20 09:16:15;;;;;;;0.50;0.50;;;19.00;53.20;;;;;;5126319;27;45237;-75
2022/04/20 09:18:43;;;;;;;0.88;0.50;;;19.00;53.20;;;;;;5128230;27;45533;-75
2022/04/20 09:21:11;;;;;;;0.50;0.50;;;19.00;53.20;;;;;;5126204;27;45484;-75
2022/04/20 09:23:40;;;;;;;1.10;0.60;;;18.90;53.10;;;;;;5126987;27;45451;-75
2022/04/20 09:26:09;;;;;;;1.00;0.70;;;18.90;53.10;;;;;;5124023;27;45469;-75
2022/04/20 09:28:36;;;;;;;0.82;0.40;;;18.90;53.10;;;;;;5126213;27;45209;-75
2022/04/20 09:31:04;;;;;;;0.82;0.57;;;18.90;53.10;;;;;;5123148;27;47378;-75
2022/04/20 09:33:45;;;;;;;1.58;0.40;;;18.90;53.10;;;;;;5128738;27;45170;-75
2022/04/20 09:36:13;;;;;;;0.55;0.45;;;18.90;52.20;;;;;;5127255;27;45187;-75
2022/04/20 09:39:02;;;;;;;0.40;0.40;;;18.90;52.40;;;;;;5127858;27;45873;-75
2022/04/20 09:41:29;;;;;;;1.05;0.60;;;19.00;51.90;;;;;;5120851;27;46196;-75
2022/04/20 09:44:08;;;;;;;0.98;0.50;;;19.00;51.90;;;;;;5123864;27;45156;-75
2022/04/20 09:49:35;;;;;;;0.57;0.43;;;19.00;51.80;;;;;;5107289;27;45309;-75
2022/04/20 09:52:10;;;;;;;0.77;0.60;;;19.00;51.90;;;;;;5128453;27;46352;-75
2022/04/20 09:54:38;;;;;;;0.75;0.55;;;19.00;51.70;;;;;;5114618;27;45908;-75
2022/04/20 09:57:10;;;;;;;0.52;0.47;;;19.00;51.60;;;;;;5127794;27;45306;-75
2022/04/20 09:59:37;;;;;;;0.90;0.50;;;19.00;51.80;;;;;;5130089;27;45162;-75
2022/04/20 10:02:11;;;;;;;0.73;0.55;;;19.00;51.70;;;;;;5129735;27;46754;-75
2022/04/20 10:04:41;;;;;;;0.40;0.40;;;19.00;51.80;;;;;;5131668;27;45258;-75
2022/04/20 10:07:08;;;;;;;1.42;0.82;;;19.00;51.70;;;;;;5121633;27;45239;-75
2022/04/20 10:09:35;;;;;;;0.60;0.40;;;19.00;51.40;;;;;;5129330;27;45366;-75
2022/04/20 10:12:04;;;;;;;0.98;0.65;;;19.00;51.50;;;;;;5129562;27;45322;-75
2022/04/20 10:17:22;;;;;;;2.00;0.80;;;19.00;50.90;;;;;;5130151;27;45327;-75
2022/04/20 10:19:49;;;;;;;0.80;0.50;;;19.00;51.10;;;;;;5128559;27;45327;-75
2022/04/20 10:22:20;;;;;;;0.75;0.43;;;19.00;51.40;;;;;;5120234;27;46000;-75
2022/04/20 10:24:50;;;;;;;0.80;0.50;;;19.00;51.40;;;;;;5125345;27;45303;-75
2022/04/20 10:27:26;;;;;;;0.60;0.40;;;19.20;51.70;;;;;;5131204;27;45348;-75
2022/04/20 10:29:58;;;;;;;0.30;0.30;;;19.00;51.40;;;;;;5128803;27;45640;-75
2022/04/20 10:32:26;;;;;;;1.17;0.63;;;19.00;51.50;;;;;;5119671;27;46186;-75
2022/04/20 10:34:54;;;;;;;0.65;0.65;;;19.00;51.20;;;;;;5122904;27;45961;-75
2022/04/20 10:37:25;;;;;;;0.98;0.50;;;19.00;50.90;;;;;;5122906;27;45268;-75
2022/04/20 10:39:54;;;;;;;0.70;0.55;;;19.00;52.40;;;;;;5115588;27;45267;-75
2022/04/20 10:42:24;;;;;;;0.77;0.55;;;19.00;51.10;;;;;;5119279;27;47164;-75
2022/04/20 10:45:03;;;;;;;0.55;0.55;;;19.00;51.00;;;;;;5130691;27;45379;-75
2022/04/20 10:47:32;;;;;;;0.60;0.60;;;19.00;50.70;;;;;;5113934;27;45175;-75
2022/04/20 10:50:16;;;;;;;1.20;0.63;;;19.00;50.80;;;;;;5125146;27;45314;-75
2022/04/20 10:52:46;;;;;;;1.50;0.90;;;19.00;50.50;;;;;;5125157;27;47219;-75
2022/04/20 10:55:13;;;;;;;0.45;0.45;;;19.00;50.70;;;;;;5129797;27;45720;-75
2022/04/20 10:57:43;;;;;;;1.08;0.73;;;19.00;50.70;;;;;;5125851;27;45237;-75
2022/04/20 11:00:27;;;;;;;1.00;0.50;;;19.00;50.40;;;;;;5128531;27;45278;-75
2022/04/20 11:02:55;;;;;;;0.93;0.68;;;19.00;50.10;;;;;;5130856;27;47559;-75
2022/04/20 11:05:24;;;;;;;1.35;0.38;;;19.00;50.30;;;;;;5117978;27;45326;-75
2022/04/20 11:08:07;;;;;;;0.88;0.60;;;19.00;50.50;;;;;;5122464;27;45307;-75
2022/04/20 11:10:35;;;;;;;0.75;0.50;;;19.00;50.50;;;;;;5122291;27;45362;-75
2022/04/20 11:19:03;;;;;;;1.77;0.70;;;19.00;52.30;;;;;;5126050;27;45208;-75
2022/04/20 11:21:30;;;;;;;0.65;0.55;;;19.00;51.10;;;;;;5127832;27;45574;-75
2022/04/20 11:24:01;;;;;;;1.23;0.55;;;19.00;50.90;;;;;;5125806;27;46336;-75
2022/04/20 11:26:29;;;;;;;1.73;0.50;;;19.00;51.10;;;;;;5129881;27;45177;-75
2022/04/20 11:29:01;;;;;;;1.23;0.45;;;19.00;51.40;;;;;;5129653;27;45251;-75
2022/04/20 11:31:36;;;;;;;0.82;0.43;;;19.00;51.50;;;;;;5124049;27;45403;-75
2022/04/20 11:34:03;;;;;;;1.45;0.50;;;19.00;51.80;;;;;;5129806;27;46311;-75
2022/04/20 11:36:29;;;;;;;1.17;0.55;;;19.00;52.20;;;;;;5127788;27;45633;-75
2022/04/20 11:38:57;;;;;;;1.88;0.52;;;19.00;51.50;;;;;;5127669;27;45230;-75
2022/04/20 11:41:24;;;;;;;1.80;0.70;;;19.10;50.90;;;;;;5130055;27;45244;-75
2022/04/20 11:43:51;;;;;;;2.28;0.77;;;19.00;50.90;;;;;;5127475;27;47098;-75
2022/04/20 11:46:20;;;;;;;0.85;0.50;;;19.00;50.80;;;;;;5127962;27;45253;-75
2022/04/20 11:48:51;;;;;;;2.42;0.70;;;19.00;50.80;;;;;;5126977;27;45662;-75
2022/04/20 11:51:23;;;;;;;1.17;0.47;;;19.00;50.50;;;;;;5129332;27;45938;-75
2022/04/20 11:53:50;;;;;;;1.20;0.52;;;19.00;50.30;;;;;;5125198;27;45465;-75
2022/04/20 11:56:17;;;;;;;0.82;0.70;;;19.00;50.10;;;;;;5125899;27;45424;-75
2022/04/20 11:58:50;;;;;;;0.75;0.63;;;19.00;51.10;;;;;;5128627;27;45348;-74
2022/04/20 12:01:20;;;;;;;0.80;0.52;;;19.00;49.40;;;;;;5123552;27;45300;-75
2022/04/20 12:03:50;;;;;;;2.25;0.70;;;19.00;49.50;;;;;;5129759;27;45290;-75
2022/04/20 12:06:17;;;;;;;0.43;0.40;;;19.10;51.00;;;;;;5129529;27;45474;-75
2022/04/20 12:08:47;;;;;;;1.23;0.63;;;19.10;49.60;;;;;;5125886;27;45151;-75
2022/04/20 12:11:15;;;;;;;3.17;0.65;;;19.00;49.70;;;;;;5128549;27;45297;-75
2022/04/20 12:13:42;;;;;;;1.05;0.55;;;19.00;50.20;;;;;;5129946;27;48109;-75
2022/04/20 12:16:10;;;;;;;1.38;0.50;;;19.00;50.00;;;;;;5126095;27;45459;-75
2022/04/20 12:18:41;;;;;;;3.92;0.70;;;19.00;50.30;;;;;;5127665;27;45261;-75
2022/04/20 12:21:40;;;;;;;0.93;0.70;;;19.00;50.10;;;;;;5128045;27;45182;-75
2022/04/20 12:24:08;;;;;;;0.80;0.60;;;19.00;50.50;;;;;;5124712;27;47879;-75
2022/04/20 12:26:35;;;;;;;0.93;0.60;;;19.00;50.30;;;;;;5129553;27;45214;-75
2022/04/20 12:29:05;;;;;;;0.80;0.45;;;19.00;50.00;;;;;;5128759;27;45901;-75
2022/04/20 12:31:33;;;;;;;1.75;0.45;;;19.00;50.10;;;;;;5127358;27;45128;-75
2022/04/20 12:34:03;;;;;;;0.75;0.50;;;19.00;50.00;;;;;;5127920;27;46641;-75
2022/04/20 12:36:31;;;;;;;0.40;0.40;;;19.00;50.10;;;;;;5128584;27;45259;-75
2022/04/20 12:38:59;;;;;;;1.33;0.65;;;19.00;49.60;;;;;;5125091;27;45571;-75
2022/04/20 12:41:41;;;;;;;0.68;0.60;;;19.00;49.40;;;;;;5126188;27;45486;-74
2022/04/20 12:44:54;;;;;;;0.80;0.70;;;19.00;49.60;;;;;;5129701;27;45451;-75
2022/04/20 12:47:38;;;;;;;0.90;0.50;;;19.10;49.20;;;;;;5128626;27;45297;-75
2022/04/20 12:50:24;;;;;;;1.05;0.57;;;19.10;49.00;;;;;;5124222;27;45314;-75
2022/04/20 12:52:53;;;;;;;2.80;0.80;;;19.10;49.20;;;;;;5128599;27;45242;-75
2022/04/20 12:55:20;;;;;;;1.02;0.50;;;19.10;49.60;;;;;;5127512;27;46429;-75
2022/04/20 13:03:36;;;;;;;0.63;0.57;;;19.00;50.00;;;;;;5124602;27;45206;-75
2022/04/20 13:06:06;;;;;;;0.68;0.50;;;19.00;49.20;;;;;;5126505;27;45275;-75
2022/04/20 13:08:33;;;;;;;0.60;0.50;;;19.00;49.10;;;;;;5127003;27;45240;-75
2022/04/20 13:11:00;;;;;;;0.82;0.68;;;19.00;48.80;;;;;;5124752;27;45295;-75
2022/04/20 13:13:27;;;;;;;0.90;0.60;;;19.00;49.30;;;;;;5117437;27;45183;-74
2022/04/20 13:15:55;;;;;;;0.93;0.55;;;19.00;49.30;;;;;;5126580;27;45442;-75
2022/04/20 13:18:21;;;;;;;1.45;0.50;;;19.00;49.10;;;;;;5121442;27;45241;-75
2022/04/20 13:20:48;;;;;;;0.60;0.52;;;19.00;49.00;;;;;;5123427;27;45270;-75
2022/04/20 13:23:17;;;;;;;1.38;0.70;;;19.00;49.30;;;;;;5125914;27;45085;-75
2022/04/20 13:28:28;;;;;;;0.95;0.55;;;19.10;49.10;;;;;;5121154;27;45249;-75
2022/04/20 13:30:56;;;;;;;1.25;0.70;;;19.00;49.10;;;;;;5125093;27;45325;-75
2022/04/20 13:33:23;;;;;;;0.98;0.50;;;19.10;49.20;;;;;;5125005;27;45586;-75
2022/04/20 13:35:52;;;;;;;0.63;0.47;;;19.10;49.10;;;;;;5126474;27;46205;-74
2022/04/20 13:38:21;;;;;;;2.30;0.75;;;19.00;48.80;;;;;;5126430;27;45582;-75
2022/04/20 13:40:48;;;;;;;0.65;0.50;;;19.10;49.20;;;;;;5114800;27;45363;-75
2022/04/20 13:43:15;;;;;;;0.55;0.50;;;19.10;49.30;;;;;;5128845;27;45357;-75
2022/04/20 13:45:42;;;;;;;2.50;0.52;;;19.00;50.40;;;;;;5126551;27;45302;-75
2022/04/20 13:48:10;;;;;;;0.68;0.57;;;19.10;49.50;;;;;;5127320;27;45135;-75
2022/04/20 13:50:37;;;;;;;0.45;0.43;;;19.00;49.30;;;;;;5120291;27;45217;-74
2022/04/20 13:53:07;;;;;;;1.17;0.70;;;19.00;49.20;;;;;;5115990;27;45218;-75
2022/04/20 13:55:36;;;;;;;0.50;0.50;;;19.00;49.00;;;;;;5127853;27;45491;-75
2022/04/20 13:58:03;;;;;;;0.47;0.40;;;19.00;48.70;;;;;;5127966;27;45247;-75
2022/04/20 14:00:30;;;;;;;1.23;0.70;;;19.10;49.40;;;;;;5119643;27;45384;-75
2022/04/20 14:02:57;;;;;;;0.52;0.40;;;19.00;49.00;;;;;;5126645;27;46053;-75
2022/04/20 14:05:24;;;;;;;0.63;0.63;;;19.00;49.00;;;;;;5120977;27;47617;-75
2022/04/20 14:07:51;;;;;;;0.93;0.50;;;19.00;49.10;;;;;;5128645;27;45181;-75
2022/04/20 14:10:18;;;;;;;0.60;0.52;;;19.00;48.80;;;;;;5126406;27;45484;-75
2022/04/20 14:12:46;;;;;;;1.17;0.88;;;19.00;48.50;;;;;;5123949;27;45383;-75
2022/04/20 14:15:14;;;;;;;0.85;0.57;;;19.10;48.50;;;;;;5127316;27;47130;-75
2022/04/20 14:17:42;;;;;;;1.00;0.60;;;19.10;48.80;;;;;;5124594;27;45438;-75
2022/04/20 14:20:10;;;;;;;0.57;0.40;;;19.10;48.90;;;;;;5126406;27;45245;-75
2022/04/20 14:22:38;;;;;;;2.47;0.67;;;19.10;49.00;;;;;;5114968;27;45514;-75
2022/04/20 14:33:17;;;;;;;1.13;0.60;;;19.00;49.20;;;;;;5122410;27;45497;-75
2022/04/20 14:35:44;;;;;;;4.20;0.80;;;19.00;49.90;;;;;;5127689;27;45622;-75
2022/04/20 14:38:12;;;;;;;2.28;0.57;;;19.00;50.30;;;;;;5124569;27;45422;-74
2022/04/20 14:40:38;;;;;;;15.77;1.50;;;19.00;50.20;;;;;;5126868;27;45280;-74